Terminal Aerodrome Forecast
Issued by NWS

Home | Current Version | Previous Version | Text Only | Print | Product List | Glossary On
Versions: 1 2 3 4 5 6 7 8 9 10 11 12 13 14 15 16 17
000
FTUS44 KLZK 210500
TAFLLQ
TAF
KLLQ 210520Z 2106/2206 00000KT P6SM SCT250
      TEMPO 2110/2114 5SM BR
     FM211700 31005KT P6SM SCT050 SCT250
     FM220200 34005KT P6SM SKC=

USA.gov is the U.S. government's official web portal to all federal, state and local government web resources and services.